Time;durP1;ratioP1;P1;durP2;ratioP2;P2;SDS_P1;SDS_P2;PMS_P1;PMS_P2;Temp;Humidity;BMP_temperature;BMP_pressure;BME280_temperature;BME280_humidity;BME280_pressure;Samples;Min_cycle;Max_cycle;Signal;HPM_P1;HPM_P2
2023/02/01 00:00:12;;;;;;;2.03;1.27;;;6.10;99.90;;;;;;5013027;28;20088;-83
2023/02/01 00:02:40;;;;;;;2.58;1.60;;;6.10;99.90;;;;;;5012425;28;20026;-84
2023/02/01 00:05:08;;;;;;;1.50;1.00;;;6.20;99.90;;;;;;5011411;28;20036;-83
2023/02/01 00:07:36;;;;;;;2.17;1.27;;;6.10;99.90;;;;;;4995102;28;20042;-84
2023/02/01 00:10:03;;;;;;;1.85;1.38;;;6.10;99.90;;;;;;5011624;28;20030;-84
2023/02/01 00:12:30;;;;;;;2.92;1.30;;;6.00;99.90;;;;;;5012133;28;20489;-84
2023/02/01 00:14:55;;;;;;;2.72;1.65;;;6.00;99.90;;;;;;5011601;28;20034;-83
2023/02/01 00:17:21;;;;;;;1.77;1.15;;;6.00;99.90;;;;;;5011379;28;20036;-83
2023/02/01 00:19:47;;;;;;;2.83;1.30;;;5.90;99.90;;;;;;5011379;28;20093;-83
2023/02/01 00:22:12;;;;;;;3.03;1.77;;;6.00;99.90;;;;;;5013041;28;20486;-83
2023/02/01 00:24:38;;;;;;;2.08;1.20;;;6.00;99.90;;;;;;5012770;28;20041;-84
2023/02/01 00:27:04;;;;;;;4.55;1.92;;;5.90;99.90;;;;;;5011017;28;20097;-83
2023/02/01 00:29:29;;;;;;;3.42;1.70;;;6.00;99.90;;;;;;5012510;28;20568;-83
2023/02/01 00:31:55;;;;;;;3.03;1.60;;;6.00;99.90;;;;;;5012890;28;20042;-82
2023/02/01 00:34:21;;;;;;;3.42;1.20;;;6.00;99.90;;;;;;5012682;28;20053;-82
2023/02/01 00:36:47;;;;;;;7.57;2.20;;;6.00;99.90;;;;;;4994831;28;20026;-82
2023/02/01 00:39:13;;;;;;;5.18;1.95;;;5.90;99.90;;;;;;5012216;28;20112;-82
2023/02/01 00:41:40;;;;;;;4.97;1.98;;;5.90;99.90;;;;;;5011853;28;20761;-82
2023/02/01 00:44:05;;;;;;;6.65;1.40;;;5.90;99.90;;;;;;4993771;28;20084;-82
2023/02/01 00:46:32;;;;;;;2.58;1.30;;;5.90;99.90;;;;;;5001065;28;20034;-82
2023/02/01 00:48:58;;;;;;;6.22;1.85;;;5.90;99.90;;;;;;5021454;28;20026;-81
2023/02/01 00:51:27;;;;;;;7.80;1.63;;;5.90;99.90;;;;;;5017147;28;20084;-82
2023/02/01 00:53:53;;;;;;;2.40;1.42;;;5.90;99.90;;;;;;5012139;28;20052;-81
2023/02/01 00:56:20;;;;;;;3.80;1.65;;;5.90;99.90;;;;;;5010836;28;20080;-81
2023/02/01 00:58:46;;;;;;;4.80;1.42;;;5.90;99.90;;;;;;5010716;28;20049;-81
2023/02/01 01:01:20;;;;;;;1.77;1.23;;;6.00;99.90;;;;;;4979013;28;20018;-81
2023/02/01 01:03:53;;;;;;;2.20;0.85;;;5.90;99.90;;;;;;5012102;28;20437;-80
2023/02/01 01:06:24;;;;;;;2.13;1.15;;;5.90;99.90;;;;;;5011783;28;20034;-80
2023/02/01 01:08:57;;;;;;;2.63;1.98;;;5.90;99.90;;;;;;4994476;28;20030;-80
2023/02/01 01:11:26;;;;;;;3.13;1.77;;;6.00;99.90;;;;;;5003959;28;20053;-81
2023/02/01 01:13:54;;;;;;;1.52;0.90;;;6.00;99.90;;;;;;5011728;28;20423;-81
2023/02/01 01:16:23;;;;;;;2.85;1.50;;;6.00;99.90;;;;;;5009512;28;20039;-81
2023/02/01 01:18:50;;;;;;;4.32;1.92;;;6.00;99.90;;;;;;5010348;28;20030;-80
2023/02/01 01:21:17;;;;;;;1.95;1.20;;;6.00;99.90;;;;;;4986870;28;20549;-80
2023/02/01 01:23:45;;;;;;;10.55;2.13;;;6.10;99.90;;;;;;5011659;28;20076;-80
2023/02/01 01:26:16;;;;;;;3.10;1.60;;;6.10;99.90;;;;;;4994842;28;20113;-81
2023/02/01 01:28:42;;;;;;;2.85;1.38;;;6.00;99.90;;;;;;5010189;28;20033;-80
2023/02/01 01:31:10;;;;;;;2.78;1.50;;;6.10;99.90;;;;;;4995330;28;20030;-80
2023/02/01 01:33:36;;;;;;;2.28;1.58;;;6.10;99.90;;;;;;5010417;28;20029;-81
2023/02/01 01:36:04;;;;;;;5.95;1.95;;;6.00;99.90;;;;;;5011001;28;20092;-80
2023/02/01 01:38:41;;;;;;;2.92;1.10;;;6.00;99.90;;;;;;5066908;28;20365;-80
2023/02/01 01:41:11;;;;;;;3.28;1.35;;;6.10;99.90;;;;;;5065615;28;20150;-79
2023/02/01 01:44:00;;;;;;;1.92;1.25;;;6.10;99.90;;;;;;5067319;28;20155;-80
2023/02/01 01:46:34;;;;;;;2.35;1.05;;;6.10;99.90;;;;;;5066033;28;20035;-79
2023/02/01 01:49:21;;;;;;;2.40;1.45;;;6.20;99.90;;;;;;5064418;28;20060;-80
2023/02/01 01:51:58;;;;;;;4.25;1.33;;;6.10;99.90;;;;;;5067743;28;20064;-80
2023/02/01 01:54:42;;;;;;;2.08;1.58;;;6.20;99.90;;;;;;5066051;28;20044;-80
2023/02/01 01:57:20;;;;;;;7.70;1.85;;;6.10;99.90;;;;;;5065468;28;20052;-81
2023/02/01 01:59:54;;;;;;;7.60;2.00;;;6.00;99.90;;;;;;5065467;28;20040;-80
2023/02/01 02:02:20;;;;;;;2.65;1.83;;;5.90;99.90;;;;;;5059013;28;20123;-80
2023/02/01 02:04:47;;;;;;;5.75;1.55;;;6.00;99.90;;;;;;5059137;28;20112;-80
2023/02/01 02:07:29;;;;;;;2.60;1.60;;;6.00;99.90;;;;;;5053593;28;20028;-80
2023/02/01 02:09:56;;;;;;;1.83;1.17;;;6.00;99.90;;;;;;5065370;28;20029;-80
2023/02/01 02:12:22;;;;;;;1.77;0.88;;;6.00;99.90;;;;;;5066075;28;20024;-80
2023/02/01 02:14:48;;;;;;;3.83;1.73;;;5.90;99.90;;;;;;5065209;28;20115;-81
2023/02/01 02:17:41;;;;;;;5.55;1.35;;;5.90;99.90;;;;;;5065475;28;20032;-80
2023/02/01 02:20:31;;;;;;;3.20;1.30;;;5.90;99.90;;;;;;5064672;28;20045;-80
2023/02/01 02:23:17;;;;;;;1.15;0.80;;;5.90;99.90;;;;;;5067083;28;20456;-80
2023/02/01 02:26:15;;;;;;;2.97;1.23;;;5.90;99.90;;;;;;5063728;28;20036;-80
2023/02/01 02:29:22;;;;;;;3.33;1.50;;;5.90;99.90;;;;;;5046775;28;20037;-80
2023/02/01 02:32:14;;;;;;;8.55;1.92;;;5.90;99.90;;;;;;5063338;28;20443;-80
2023/02/01 02:34:53;;;;;;;2.30;1.40;;;5.90;99.90;;;;;;5064944;28;20041;-80
2023/02/01 02:38:17;;;;;;;8.48;1.58;;;5.90;99.90;;;;;;5056941;28;20035;-81
2023/02/01 02:40:58;;;;;;;1.75;1.20;;;5.90;99.90;;;;;;5058340;28;20095;-81
2023/02/01 02:49:41;;;;;;;2.88;1.60;;;5.90;99.90;;;;;;5052927;28;20037;-83
2023/02/01 02:55:05;;;;;;;7.07;1.10;;;5.80;99.90;;;;;;5047668;28;20506;-84
2023/02/01 03:05:56;;;;;;;9.32;1.63;;;5.60;99.90;;;;;;5050741;28;20040;-83
2023/02/01 03:08:23;;;;;;;9.60;2.35;;;5.60;99.90;;;;;;5052388;28;20029;-83
2023/02/01 03:11:00;;;;;;;10.65;2.60;;;5.60;99.90;;;;;;5033184;28;20035;-83
2023/02/01 03:13:54;;;;;;;5.10;1.67;;;5.70;99.90;;;;;;5031852;28;20033;-83
2023/02/01 03:16:26;;;;;;;3.53;2.45;;;5.70;99.90;;;;;;5048416;28;20020;-84
2023/02/01 03:19:06;;;;;;;2.78;1.70;;;5.80;99.90;;;;;;5048949;28;20493;-83
2023/02/01 03:21:42;;;;;;;6.57;1.45;;;5.90;99.90;;;;;;5052911;28;20083;-83
2023/02/01 03:24:33;;;;;;;4.57;2.38;;;6.00;99.90;;;;;;5050274;28;20030;-83
2023/02/01 03:27:09;;;;;;;3.47;1.55;;;6.00;99.90;;;;;;5052243;28;20049;-83
2023/02/01 03:30:09;;;;;;;4.28;1.90;;;6.10;99.90;;;;;;5051238;28;20112;-83
2023/02/01 03:35:54;;;;;;;4.57;1.75;;;6.10;99.90;;;;;;5050752;28;20047;-82
2023/02/01 03:38:44;;;;;;;2.65;1.25;;;6.10;99.90;;;;;;5029694;28;20049;-81
2023/02/01 03:41:32;;;;;;;3.72;1.58;;;6.10;99.90;;;;;;5050689;28;20533;-81
2023/02/01 03:44:15;;;;;;;7.82;2.65;;;6.20;99.90;;;;;;5050076;28;20094;-82
2023/02/01 03:46:53;;;;;;;9.98;1.98;;;6.20;99.90;;;;;;5052354;28;20510;-82
2023/02/01 03:49:33;;;;;;;3.03;1.80;;;6.20;99.90;;;;;;5050009;28;20072;-81
2023/02/01 03:52:00;;;;;;;2.63;1.83;;;6.20;99.90;;;;;;5051309;28;20041;-81
2023/02/01 03:54:28;;;;;;;3.70;1.90;;;6.20;99.90;;;;;;5033292;28;20439;-81
2023/02/01 03:56:58;;;;;;;2.38;1.58;;;6.20;99.90;;;;;;5050453;28;20029;-80
2023/02/01 03:59:24;;;;;;;2.60;1.43;;;6.30;99.90;;;;;;5049029;28;20570;-80
2023/02/01 04:01:50;;;;;;;2.83;1.50;;;6.30;99.90;;;;;;5051649;28;20021;-81
2023/02/01 04:04:19;;;;;;;2.72;1.58;;;6.20;99.90;;;;;;5049475;28;20586;-81
2023/02/01 04:06:49;;;;;;;2.38;1.48;;;6.20;99.90;;;;;;5051195;28;20140;-81
2023/02/01 04:09:16;;;;;;;6.90;1.45;;;6.20;99.90;;;;;;5050383;28;20024;-81
2023/02/01 04:11:42;;;;;;;4.72;2.08;;;6.20;99.90;;;;;;5056672;28;20033;-80
2023/02/01 04:14:08;;;;;;;6.22;2.20;;;6.30;99.90;;;;;;5057008;28;20057;-81
2023/02/01 04:16:34;;;;;;;4.13;1.73;;;6.40;99.90;;;;;;5035319;28;20060;-81
2023/02/01 04:19:01;;;;;;;3.75;1.90;;;6.30;99.90;;;;;;5045626;23;20013;-82
2023/02/01 04:21:27;;;;;;;6.10;1.52;;;6.40;99.90;;;;;;5027219;28;20119;-85
2023/02/01 04:23:54;;;;;;;7.95;1.67;;;6.40;99.90;;;;;;5012767;28;20038;-82
2023/02/01 04:26:20;;;;;;;4.47;1.77;;;6.50;99.90;;;;;;5021210;28;20060;-83
2023/02/01 04:28:47;;;;;;;4.55;2.05;;;6.40;99.90;;;;;;5030858;28;20036;-83
2023/02/01 04:31:15;;;;;;;4.18;1.92;;;6.40;99.90;;;;;;5038002;28;20025;-82
2023/02/01 04:33:40;;;;;;;2.67;1.60;;;6.40;99.90;;;;;;5025016;28;20032;-84
2023/02/01 04:36:06;;;;;;;5.50;2.20;;;6.40;99.90;;;;;;5019747;28;20037;-84
2023/02/01 04:38:32;;;;;;;1.65;1.23;;;6.40;99.90;;;;;;5030531;28;20120;-84
2023/02/01 04:40:59;;;;;;;2.60;1.52;;;6.40;99.90;;;;;;5020359;28;20109;-84
2023/02/01 04:43:25;;;;;;;3.97;1.75;;;6.40;99.90;;;;;;5023134;28;20029;-83
2023/02/01 04:45:51;;;;;;;8.85;1.95;;;6.40;99.90;;;;;;5019810;28;20021;-82
2023/02/01 04:48:19;;;;;;;3.03;1.90;;;6.40;99.90;;;;;;5029894;28;20094;-83
2023/02/01 04:50:47;;;;;;;7.35;2.25;;;6.40;99.90;;;;;;5020481;28;20436;-83
2023/02/01 04:53:17;;;;;;;6.47;2.50;;;6.40;99.90;;;;;;5031071;28;20460;-83
2023/02/01 04:55:43;;;;;;;2.00;1.50;;;6.40;99.90;;;;;;5019771;28;20029;-83
2023/02/01 04:58:10;;;;;;;4.25;1.55;;;6.40;99.90;;;;;;5020852;28;20529;-83
2023/02/01 05:00:37;;;;;;;2.20;1.13;;;6.50;99.90;;;;;;5029684;28;20025;-83
2023/02/01 05:03:03;;;;;;;3.05;1.27;;;6.50;99.90;;;;;;5030889;28;20440;-83
2023/02/01 05:05:29;;;;;;;2.35;1.65;;;6.50;99.90;;;;;;5029740;28;20033;-84
2023/02/01 05:07:54;;;;;;;4.03;1.45;;;6.50;99.90;;;;;;5030133;28;20034;-84
2023/02/01 05:10:21;;;;;;;2.47;1.50;;;6.50;99.90;;;;;;5019974;28;20034;-83
2023/02/01 05:15:31;;;;;;;4.43;1.40;;;6.40;99.90;;;;;;5019733;28;20131;-84
2023/02/01 05:17:58;;;;;;;3.50;1.60;;;6.40;99.90;;;;;;5020630;28;20033;-83
2023/02/01 05:20:24;;;;;;;3.55;1.63;;;6.40;99.90;;;;;;5019011;28;20036;-84
2023/02/01 05:22:51;;;;;;;2.50;1.02;;;6.30;99.90;;;;;;5021488;28;20021;-85
2023/02/01 05:25:16;;;;;;;2.80;1.60;;;6.30;99.90;;;;;;5020698;28;20095;-86
2023/02/01 05:27:43;;;;;;;7.18;1.70;;;6.30;99.90;;;;;;5003923;28;20108;-82
2023/02/01 05:30:09;;;;;;;4.45;2.05;;;6.20;99.90;;;;;;5020238;28;20041;-82
2023/02/01 05:32:35;;;;;;;3.63;2.25;;;6.20;99.90;;;;;;5004623;28;20413;-83
2023/02/01 05:35:01;;;;;;;2.70;2.13;;;6.10;99.90;;;;;;5030039;28;20036;-86
2023/02/01 05:37:27;;;;;;;1.85;1.20;;;6.10;99.90;;;;;;5029553;28;20044;-87
2023/02/01 05:39:53;;;;;;;8.23;3.17;;;6.10;99.90;;;;;;5013018;28;20025;-86
2023/02/01 05:42:19;;;;;;;8.05;2.92;;;6.10;99.90;;;;;;5027653;28;20030;-87
2023/02/01 05:44:45;;;;;;;7.75;2.33;;;6.20;99.90;;;;;;5030183;28;20026;-83
2023/02/01 05:47:10;;;;;;;6.45;2.05;;;6.20;99.90;;;;;;5029593;28;20037;-77
2023/02/01 05:49:36;;;;;;;3.88;2.28;;;6.00;99.90;;;;;;5024899;28;20496;-82
2023/02/01 05:52:02;;;;;;;2.78;1.67;;;6.00;99.90;;;;;;5028506;28;20052;-80
2023/02/01 05:54:28;;;;;;;6.53;1.63;;;5.90;99.90;;;;;;5011254;28;20144;-77
2023/02/01 05:56:53;;;;;;;2.95;1.73;;;5.80;99.90;;;;;;5029383;28;20030;-83
2023/02/01 05:59:19;;;;;;;4.50;2.20;;;5.80;99.90;;;;;;5029526;28;20052;-84
2023/02/01 06:01:45;;;;;;;5.10;2.40;;;5.90;99.90;;;;;;5030136;28;20049;-80
2023/02/01 06:04:10;;;;;;;4.78;2.30;;;5.80;99.90;;;;;;5024211;28;20419;-80
2023/02/01 06:06:36;;;;;;;4.57;2.42;;;5.80;99.90;;;;;;5024058;28;20037;-79
2023/02/01 06:09:03;;;;;;;3.90;1.85;;;5.70;99.90;;;;;;5029157;28;20038;-81
2023/02/01 06:11:29;;;;;;;3.13;1.75;;;5.70;99.90;;;;;;5020299;28;20061;-76
2023/02/01 06:13:55;;;;;;;10.48;2.47;;;5.80;99.90;;;;;;5027132;28;20070;-81
2023/02/01 06:16:22;;;;;;;1.80;1.27;;;5.80;99.90;;;;;;5004219;28;20466;-81
2023/02/01 06:18:48;;;;;;;3.38;1.98;;;5.70;99.90;;;;;;4996263;28;20105;-81
2023/02/01 06:21:23;;;;;;;14.75;2.50;;;5.80;99.90;;;;;;5020167;28;20026;-81
2023/02/01 06:23:53;;;;;;;3.63;2.08;;;5.80;99.90;;;;;;5025913;28;20178;-76
2023/02/01 06:26:19;;;;;;;5.18;1.95;;;5.80;99.90;;;;;;5017769;28;20041;-80
2023/02/01 06:28:45;;;;;;;8.98;1.98;;;5.80;99.90;;;;;;5034831;28;20559;-83
2023/02/01 06:31:11;;;;;;;2.25;1.50;;;5.80;99.90;;;;;;5017721;28;20042;-82
2023/02/01 06:33:37;;;;;;;7.45;1.95;;;5.90;99.90;;;;;;5021186;28;20022;-81
2023/02/01 06:36:07;;;;;;;2.33;1.40;;;5.90;99.90;;;;;;5031342;28;20048;-82
2023/02/01 06:38:36;;;;;;;5.18;1.77;;;6.00;99.90;;;;;;5014996;28;20032;-81
2023/02/01 06:41:03;;;;;;;3.30;1.50;;;6.00;99.90;;;;;;5006255;28;20036;-84
2023/02/01 06:43:29;;;;;;;4.47;2.63;;;5.90;99.90;;;;;;5020135;28;20017;-84
2023/02/01 06:46:01;;;;;;;3.95;1.88;;;5.90;99.90;;;;;;5024681;28;20083;-81
2023/02/01 06:48:27;;;;;;;4.57;2.03;;;5.90;99.90;;;;;;5015117;28;20506;-81
2023/02/01 06:50:52;;;;;;;4.03;2.03;;;5.90;99.90;;;;;;5019721;28;20049;-87
2023/02/01 06:53:18;;;;;;;3.97;1.95;;;5.90;99.90;;;;;;5033585;28;20041;-75
2023/02/01 06:56:00;;;;;;;5.05;1.30;;;6.00;99.90;;;;;;5030635;28;20107;-79
2023/02/01 06:58:31;;;;;;;7.65;2.03;;;6.10;99.90;;;;;;5017406;28;20038;-81
2023/02/01 07:00:57;;;;;;;2.88;1.67;;;6.20;99.90;;;;;;5009313;28;20428;-73
2023/02/01 07:03:23;;;;;;;4.70;2.30;;;6.30;99.90;;;;;;4976789;28;20038;-73
2023/02/01 07:05:49;;;;;;;10.10;2.00;;;6.40;99.90;;;;;;5016935;28;20040;-74
2023/02/01 07:08:15;;;;;;;5.32;2.17;;;6.40;99.90;;;;;;5023805;28;20029;-72
2023/02/01 07:10:41;;;;;;;7.35;1.92;;;6.40;99.90;;;;;;5010737;28;20030;-73
2023/02/01 07:13:06;;;;;;;6.43;2.13;;;6.40;99.90;;;;;;5023392;28;20029;-72
2023/02/01 07:15:32;;;;;;;3.10;1.80;;;6.40;99.90;;;;;;5011534;28;20033;-72
2023/02/01 07:17:58;;;;;;;8.50;2.97;;;6.40;99.90;;;;;;5023217;28;20036;-74
2023/02/01 07:20:24;;;;;;;1.77;1.42;;;6.30;99.90;;;;;;5026748;28;20030;-74
2023/02/01 07:22:56;;;;;;;3.55;2.17;;;6.40;99.90;;;;;;5019087;28;20033;-74
2023/02/01 07:25:22;;;;;;;2.72;1.48;;;6.30;99.90;;;;;;5014120;28;20026;-74
2023/02/01 07:27:48;;;;;;;12.25;2.13;;;6.40;99.90;;;;;;5022837;28;20064;-75
2023/02/01 07:30:14;;;;;;;2.95;1.95;;;6.40;99.90;;;;;;5026768;28;20068;-74
2023/02/01 07:32:39;;;;;;;12.95;1.90;;;6.40;99.90;;;;;;5006051;28;20065;-75
2023/02/01 07:35:06;;;;;;;7.15;1.52;;;6.50;99.90;;;;;;5026610;28;20034;-75
2023/02/01 07:37:31;;;;;;;2.78;1.55;;;6.50;99.90;;;;;;5022969;28;20516;-74
2023/02/01 07:39:57;;;;;;;3.30;1.77;;;6.40;99.90;;;;;;5026447;28;20030;-74
2023/02/01 07:42:23;;;;;;;2.85;1.65;;;6.40;99.90;;;;;;5002456;28;20030;-74
2023/02/01 07:44:48;;;;;;;13.52;2.80;;;6.30;99.90;;;;;;5014891;28;20017;-74
2023/02/01 07:47:14;;;;;;;3.38;2.22;;;6.20;99.90;;;;;;5020660;28;20478;-74
2023/02/01 07:49:40;;;;;;;2.70;1.67;;;6.10;99.90;;;;;;5010721;28;20445;-74
2023/02/01 07:52:05;;;;;;;4.72;1.02;;;6.10;99.90;;;;;;5020777;28;20040;-75
2023/02/01 07:54:31;;;;;;;4.50;1.20;;;6.10;99.90;;;;;;5030905;28;20029;-75
2023/02/01 07:56:57;;;;;;;2.95;1.55;;;6.20;99.90;;;;;;5000644;28;20026;-75
2023/02/01 07:59:22;;;;;;;3.50;2.67;;;6.10;99.90;;;;;;5011469;28;20060;-75
2023/02/01 08:01:48;;;;;;;5.85;2.70;;;6.20;99.90;;;;;;5017152;28;20026;-75
2023/02/01 08:04:14;;;;;;;7.40;1.73;;;6.30;99.90;;;;;;5031046;28;20026;-74
2023/02/01 08:06:40;;;;;;;4.55;2.25;;;6.30;99.90;;;;;;4987001;28;20041;-75
2023/02/01 08:09:11;;;;;;;2.75;1.10;;;6.40;99.90;;;;;;5029778;28;20095;-75
2023/02/01 08:11:37;;;;;;;8.15;1.00;;;6.50;99.90;;;;;;5019638;28;20084;-75
2023/02/01 08:14:05;;;;;;;2.67;1.38;;;6.60;99.90;;;;;;5010096;28;20033;-75
2023/02/01 08:16:31;;;;;;;5.63;1.60;;;6.50;99.90;;;;;;5019649;28;20026;-76
2023/02/01 08:18:56;;;;;;;4.03;1.33;;;6.50;99.90;;;;;;5028105;28;20091;-74
2023/02/01 08:21:36;;;;;;;10.30;2.17;;;6.60;99.90;;;;;;5023164;28;20474;-75
2023/02/01 08:24:04;;;;;;;2.70;1.35;;;6.50;99.90;;;;;;4996735;28;20042;-75
2023/02/01 08:26:30;;;;;;;13.85;2.45;;;6.50;99.90;;;;;;5015892;28;20528;-75
2023/02/01 08:29:00;;;;;;;7.97;1.50;;;6.50;99.90;;;;;;5014251;28;20030;-74
2023/02/01 08:31:28;;;;;;;18.83;2.70;;;6.50;99.90;;;;;;4977337;28;20033;-74
2023/02/01 08:34:01;;;;;;;2.10;0.80;;;6.60;99.90;;;;;;5009789;28;20101;-75
2023/02/01 08:36:29;;;;;;;6.78;1.77;;;6.70;99.90;;;;;;5004128;28;20502;-75
2023/02/01 08:38:56;;;;;;;5.85;1.83;;;6.70;99.90;;;;;;5010388;28;20033;-75
2023/02/01 08:41:25;;;;;;;7.90;1.45;;;6.70;99.90;;;;;;5005395;28;20554;-75
2023/02/01 08:43:52;;;;;;;1.65;1.17;;;6.60;99.90;;;;;;4997806;28;20044;-75
2023/02/01 08:46:18;;;;;;;9.18;2.47;;;6.50;99.90;;;;;;5000013;28;20080;-76
2023/02/01 08:48:46;;;;;;;5.60;1.42;;;6.60;99.90;;;;;;5002647;28;20038;-75
2023/02/01 08:51:14;;;;;;;2.40;1.65;;;6.60;99.90;;;;;;5003653;28;20026;-74
2023/02/01 08:53:41;;;;;;;2.95;1.52;;;6.70;99.90;;;;;;5015616;28;20029;-75
2023/02/01 08:56:08;;;;;;;4.07;2.22;;;6.70;99.90;;;;;;4984641;28;20040;-75
2023/02/01 08:58:33;;;;;;;8.35;1.55;;;6.70;99.90;;;;;;5006265;28;20041;-73
2023/02/01 09:01:12;;;;;;;10.73;1.35;;;6.80;99.90;;;;;;5023642;28;20445;-70
2023/02/01 09:03:39;;;;;;;6.00;2.17;;;6.90;99.90;;;;;;5008284;28;20036;-75
2023/02/01 09:06:08;;;;;;;9.18;2.33;;;6.90;99.90;;;;;;4989589;28;20029;-75
2023/02/01 09:08:36;;;;;;;3.95;1.63;;;6.90;99.90;;;;;;5007077;28;20029;-74
2023/02/01 09:11:06;;;;;;;3.40;2.15;;;7.00;99.90;;;;;;5007752;28;20041;-74
2023/02/01 09:13:33;;;;;;;2.58;2.15;;;7.10;99.90;;;;;;4990492;28;20043;-73
2023/02/01 09:16:00;;;;;;;4.32;2.33;;;7.10;99.90;;;;;;5007394;28;20110;-74
2023/02/01 09:18:26;;;;;;;4.10;1.55;;;7.20;99.90;;;;;;5005206;28;20033;-75
2023/02/01 09:20:51;;;;;;;2.20;1.13;;;7.20;99.90;;;;;;5024078;28;20504;-75
2023/02/01 09:23:20;;;;;;;2.95;0.93;;;7.20;99.90;;;;;;5022427;28;20025;-74
2023/02/01 09:25:46;;;;;;;4.78;1.10;;;7.40;99.90;;;;;;5009218;28;20508;-75
2023/02/01 09:28:12;;;;;;;8.45;3.72;;;7.40;99.90;;;;;;5019996;28;20033;-76
2023/02/01 09:30:38;;;;;;;4.40;1.70;;;7.40;99.90;;;;;;4998551;28;20583;-71
2023/02/01 09:33:04;;;;;;;7.88;2.55;;;7.20;99.90;;;;;;5005696;28;20096;-74
2023/02/01 09:35:30;;;;;;;2.90;1.17;;;7.20;99.90;;;;;;5000947;28;20108;-74
2023/02/01 09:37:56;;;;;;;13.82;1.15;;;7.20;99.90;;;;;;5020907;28;20159;-75
2023/02/01 09:40:22;;;;;;;9.00;2.65;;;7.20;99.90;;;;;;5027781;28;20034;-74
2023/02/01 09:43:24;;;;;;;8.77;1.48;;;7.30;99.90;;;;;;5021708;28;20021;-74
2023/02/01 09:46:21;;;;;;;3.42;1.23;;;7.30;99.90;;;;;;5027730;28;20037;-79
2023/02/01 09:48:49;;;;;;;11.93;2.33;;;7.30;99.90;;;;;;5002799;28;20026;-72
2023/02/01 09:51:23;;;;;;;4.68;1.48;;;7.30;99.90;;;;;;4990513;28;20026;-72
2023/02/01 09:54:01;;;;;;;8.95;2.45;;;7.30;99.90;;;;;;5010529;28;20053;-73
2023/02/01 09:56:52;;;;;;;9.52;1.73;;;7.30;99.90;;;;;;4999372;28;20041;-75
2023/02/01 09:59:33;;;;;;;10.68;1.80;;;7.30;99.90;;;;;;4979406;28;20034;-74
2023/02/01 10:02:01;;;;;;;6.85;0.75;;;7.30;99.90;;;;;;5012893;28;20034;-74
2023/02/01 10:04:28;;;;;;;2.33;1.08;;;7.40;99.90;;;;;;5013815;28;20409;-75
2023/02/01 10:08:00;;;;;;;6.10;1.30;;;7.40;99.90;;;;;;5003481;28;20061;-75
2023/02/01 10:10:40;;;;;;;2.67;1.42;;;7.50;99.90;;;;;;4988915;28;20081;-73
2023/02/01 10:13:26;;;;;;;2.83;1.20;;;7.50;99.90;;;;;;4999618;28;20670;-73
2023/02/01 10:16:03;;;;;;;5.63;0.82;;;7.50;99.90;;;;;;5012419;28;20824;-74
2023/02/01 10:18:47;;;;;;;7.00;1.17;;;7.50;99.90;;;;;;5014744;28;20053;-74
2023/02/01 10:21:38;;;;;;;15.15;2.10;;;7.50;99.90;;;;;;5010995;22;20516;-73
2023/02/01 10:24:41;;;;;;;2.75;1.15;;;7.60;99.90;;;;;;4995472;28;20030;-73
2023/02/01 10:27:19;;;;;;;6.70;2.13;;;7.50;99.90;;;;;;5002946;28;20050;-73
2023/02/01 10:29:54;;;;;;;4.25;1.10;;;7.60;99.90;;;;;;4976059;28;20586;-73
2023/02/01 10:32:30;;;;;;;4.95;1.50;;;7.60;99.90;;;;;;4976911;28;20030;-73
2023/02/01 10:35:01;;;;;;;11.52;1.50;;;7.60;99.90;;;;;;4974345;28;20035;-74
2023/02/01 10:37:31;;;;;;;7.32;1.77;;;7.70;99.90;;;;;;4959451;28;20105;-74
2023/02/01 10:40:21;;;;;;;2.92;1.10;;;7.60;99.90;;;;;;4974679;28;20038;-73
2023/02/01 10:42:51;;;;;;;9.07;1.60;;;7.60;99.90;;;;;;4991559;28;20117;-74
2023/02/01 10:45:22;;;;;;;6.85;1.20;;;7.60;99.90;;;;;;4974300;28;20509;-73
2023/02/01 10:47:54;;;;;;;8.27;2.13;;;7.70;99.90;;;;;;4975539;28;20061;-74
2023/02/01 10:50:44;;;;;;;8.93;1.33;;;7.60;99.90;;;;;;4974035;28;20026;-74
2023/02/01 10:53:39;;;;;;;7.78;1.30;;;7.50;99.90;;;;;;4946547;28;20054;-75
2023/02/01 10:56:11;;;;;;;3.58;1.40;;;7.50;99.90;;;;;;4971542;28;20041;-74
2023/02/01 10:58:46;;;;;;;1.58;0.77;;;7.60;99.90;;;;;;4973246;28;20050;-74
2023/02/01 11:01:39;;;;;;;0.98;0.80;;;7.60;99.90;;;;;;4960220;28;20037;-73
2023/02/01 11:04:17;;;;;;;1.20;0.73;;;7.70;99.90;;;;;;4940171;28;20495;-74
2023/02/01 11:07:08;;;;;;;8.05;1.77;;;7.60;99.90;;;;;;4952381;28;20036;-74
2023/02/01 11:09:40;;;;;;;10.37;1.37;;;7.70;99.90;;;;;;4954101;28;20030;-74
2023/02/01 11:12:31;;;;;;;3.40;0.85;;;7.70;99.90;;;;;;4984184;28;20027;-73
2023/02/01 11:15:21;;;;;;;9.27;2.58;;;7.60;99.90;;;;;;4963931;28;20920;-73
2023/02/01 11:17:51;;;;;;;2.72;1.38;;;7.60;99.90;;;;;;4984800;28;20050;-77
2023/02/01 11:20:23;;;;;;;3.33;0.80;;;7.60;99.90;;;;;;4973254;28;20026;-76
2023/02/01 11:22:56;;;;;;;2.47;1.45;;;7.60;99.90;;;;;;4992855;28;20034;-77
2023/02/01 11:25:23;;;;;;;13.55;1.45;;;7.60;99.90;;;;;;4972188;28;20027;-75
2023/02/01 11:27:50;;;;;;;2.13;0.85;;;7.60;99.90;;;;;;4974723;28;20034;-74
2023/02/01 11:30:26;;;;;;;3.90;0.98;;;7.50;99.90;;;;;;4973038;28;20052;-73
2023/02/01 11:32:52;;;;;;;5.07;1.42;;;7.50;99.90;;;;;;4971743;28;20373;-72
2023/02/01 11:35:20;;;;;;;7.32;1.00;;;7.50;99.90;;;;;;4976013;28;20156;-73
2023/02/01 11:37:55;;;;;;;6.00;0.90;;;7.50;99.90;;;;;;4991423;28;20039;-73
2023/02/01 11:40:38;;;;;;;9.10;1.25;;;7.50;99.90;;;;;;4973229;28;20022;-72
2023/02/01 11:43:24;;;;;;;3.13;1.35;;;7.50;99.90;;;;;;4981955;28;20557;-71
2023/02/01 11:46:02;;;;;;;4.60;1.35;;;7.50;99.90;;;;;;4975326;28;20070;-73
2023/02/01 11:48:32;;;;;;;3.25;1.70;;;7.60;99.90;;;;;;4975931;28;20044;-73
2023/02/01 11:51:10;;;;;;;10.47;2.27;;;7.60;99.90;;;;;;4966698;28;20038;-74
2023/02/01 11:54:16;;;;;;;1.20;0.63;;;7.70;99.90;;;;;;4960740;28;20066;-71
2023/02/01 11:57:22;;;;;;;0.82;0.60;;;7.60;99.90;;;;;;4977214;28;20034;-69
2023/02/01 12:00:44;;;;;;;4.32;0.88;;;7.60;99.90;;;;;;4954960;28;20507;-73
2023/02/01 12:03:41;;;;;;;1.17;0.40;;;7.70;99.90;;;;;;4965319;28;20481;-77
2023/02/01 12:06:32;;;;;;;4.18;1.08;;;7.70;99.90;;;;;;4953856;28;20565;-78
2023/02/01 12:09:32;;;;;;;11.70;2.78;;;7.60;99.90;;;;;;4985334;28;20038;-75
2023/02/01 12:12:12;;;;;;;23.60;1.40;;;7.50;99.90;;;;;;4954240;28;20042;-73
2023/02/01 12:15:47;;;;;;;6.63;0.80;;;7.60;99.90;;;;;;4959820;28;20039;-75
2023/02/01 12:18:46;;;;;;;16.05;2.08;;;7.60;99.90;;;;;;4945933;28;20108;-78
2023/02/01 12:21:30;;;;;;;8.13;0.55;;;7.60;99.90;;;;;;4959124;28;20109;-79
2023/02/01 12:24:20;;;;;;;0.85;0.70;;;7.60;99.90;;;;;;4962633;28;20140;-78
2023/02/01 12:27:06;;;;;;;4.43;1.83;;;7.60;99.90;;;;;;4974922;28;20031;-79
2023/02/01 12:30:14;;;;;;;6.97;1.85;;;7.50;99.90;;;;;;4964688;28;20393;-77
2023/02/01 12:33:11;;;;;;;7.03;1.30;;;7.50;99.90;;;;;;4982457;28;20041;-76
2023/02/01 12:35:54;;;;;;;2.65;0.98;;;7.40;99.90;;;;;;4936692;28;20035;-76
2023/02/01 12:38:42;;;;;;;10.48;1.55;;;7.50;99.90;;;;;;4990059;28;20125;-76
2023/02/01 12:41:23;;;;;;;2.83;1.63;;;7.50;99.90;;;;;;4947495;28;20031;-75
2023/02/01 12:44:07;;;;;;;18.07;2.00;;;7.40;99.90;;;;;;4971896;28;20490;-76
2023/02/01 12:46:51;;;;;;;13.13;1.70;;;7.50;99.90;;;;;;4979614;28;20652;-76
2023/02/01 12:49:44;;;;;;;7.88;1.40;;;7.40;99.90;;;;;;4975772;28;20026;-75
2023/02/01 12:52:34;;;;;;;5.85;1.17;;;7.40;99.90;;;;;;4949699;28;20028;-76
2023/02/01 12:55:33;;;;;;;9.00;1.73;;;7.40;99.90;;;;;;4973606;28;20446;-76
2023/02/01 12:58:13;;;;;;;3.20;0.68;;;7.30;99.90;;;;;;4968233;28;20034;-76
2023/02/01 13:00:46;;;;;;;1.73;0.85;;;7.40;99.90;;;;;;4966638;28;20027;-76
2023/02/01 13:03:42;;;;;;;6.32;1.95;;;7.30;99.90;;;;;;4974088;28;20076;-77
2023/02/01 13:06:22;;;;;;;12.15;1.48;;;7.30;99.90;;;;;;4968472;28;20034;-77
2023/02/01 13:09:40;;;;;;;5.70;1.67;;;7.30;99.90;;;;;;4990945;28;20224;-77
2023/02/01 13:12:24;;;;;;;8.02;1.33;;;7.30;99.90;;;;;;4974917;28;20051;-77
2023/02/01 13:15:06;;;;;;;6.20;1.35;;;7.40;99.90;;;;;;4963564;28;20380;-77
2023/02/01 13:17:34;;;;;;;7.65;1.02;;;7.40;99.90;;;;;;4965911;28;20057;-77
2023/02/01 13:20:29;;;;;;;5.82;2.08;;;7.40;99.90;;;;;;4966739;28;20037;-76
2023/02/01 13:23:05;;;;;;;3.92;1.02;;;7.40;99.90;;;;;;4968593;28;20038;-77
2023/02/01 13:25:40;;;;;;;9.52;0.95;;;7.40;99.90;;;;;;4954750;28;20410;-76
2023/02/01 13:28:16;;;;;;;2.22;0.43;;;7.40;99.90;;;;;;4972586;28;20058;-76
2023/02/01 13:30:54;;;;;;;5.90;1.27;;;7.40;99.90;;;;;;4949584;28;20039;-75
2023/02/01 13:33:56;;;;;;;2.47;1.23;;;7.40;99.90;;;;;;4958246;28;20033;-75
2023/02/01 13:36:46;;;;;;;7.25;1.90;;;7.50;99.90;;;;;;4983193;28;20038;-76
2023/02/01 13:40:05;;;;;;;11.35;2.40;;;7.40;99.90;;;;;;4973739;28;20391;-77
2023/02/01 13:42:55;;;;;;;4.63;0.80;;;7.50;99.90;;;;;;4982077;28;20038;-77
2023/02/01 13:45:24;;;;;;;8.35;2.47;;;7.50;99.90;;;;;;4922739;28;20564;-76
2023/02/01 13:47:54;;;;;;;4.60;1.27;;;7.50;99.90;;;;;;4986324;28;20037;-77
2023/02/01 13:50:35;;;;;;;13.98;1.67;;;7.50;99.90;;;;;;4970491;28;20525;-77
2023/02/01 13:53:13;;;;;;;14.40;1.75;;;7.50;99.90;;;;;;4971982;28;20022;-76